Time;durP1;ratioP1;P1;durP2;ratioP2;P2;SDS_P1;SDS_P2;PMS_P1;PMS_P2;Temp;Humidity;BMP_temperature;BMP_pressure;BME280_temperature;BME280_humidity;BME280_pressure;Samples;Min_cycle;Max_cycle;Signal;HPM_P1;HPM_P2
2021/05/26 00:01:46;;;;;;;8.52;2.45;;;13.70;74.90;;;;;;4882753;29;21053;-73
2021/05/26 00:04:12;;;;;;;8.63;2.00;;;13.70;74.90;;;;;;4878100;29;20061;-73
2021/05/26 00:06:39;;;;;;;7.38;2.63;;;13.80;75.20;;;;;;4882791;29;20108;-73
2021/05/26 00:09:05;;;;;;;11.00;2.83;;;13.70;74.80;;;;;;4891460;29;20037;-73
2021/05/26 00:11:31;;;;;;;8.30;2.88;;;13.70;75.30;;;;;;4869831;29;20030;-73
2021/05/26 00:13:57;;;;;;;7.53;2.88;;;13.70;75.30;;;;;;4867006;29;20057;-73
2021/05/26 00:16:25;;;;;;;8.60;2.42;;;13.70;74.80;;;;;;4859973;29;20552;-73
2021/05/26 00:18:51;;;;;;;8.80;2.42;;;13.70;75.90;;;;;;4880016;29;20485;-73
2021/05/26 00:21:17;;;;;;;7.68;2.17;;;13.70;75.50;;;;;;4894242;29;20040;-73
2021/05/26 00:23:43;;;;;;;9.90;2.30;;;13.70;75.60;;;;;;4883687;29;20029;-74
2021/05/26 00:26:09;;;;;;;7.82;2.63;;;13.70;75.30;;;;;;4882455;29;20043;-74
2021/05/26 00:28:35;;;;;;;5.75;2.22;;;13.70;75.50;;;;;;4886084;29;20057;-74
2021/05/26 00:31:02;;;;;;;9.07;2.40;;;13.70;75.50;;;;;;4881364;29;20566;-74
2021/05/26 00:33:28;;;;;;;8.77;2.40;;;13.70;76.00;;;;;;4881793;29;20033;-74
2021/05/26 00:35:54;;;;;;;8.35;2.25;;;13.70;76.00;;;;;;4884719;29;20126;-74
2021/05/26 00:38:20;;;;;;;8.90;2.20;;;13.70;75.50;;;;;;4867587;29;20041;-74
2021/05/26 00:40:48;;;;;;;7.53;2.60;;;13.70;75.60;;;;;;4882862;29;20808;-74
2021/05/26 00:43:15;;;;;;;5.68;1.83;;;13.70;75.70;;;;;;4885847;29;20033;-74
2021/05/26 00:45:41;;;;;;;5.90;2.10;;;13.70;75.90;;;;;;4885784;29;20533;-74
2021/05/26 00:48:07;;;;;;;5.13;2.25;;;13.70;75.10;;;;;;4885717;29;20033;-74
2021/05/26 00:50:36;;;;;;;7.10;2.38;;;13.70;75.90;;;;;;4890437;29;20040;-74
2021/05/26 00:53:07;;;;;;;5.85;1.88;;;13.70;75.80;;;;;;4877894;29;20402;-74
2021/05/26 00:55:33;;;;;;;6.93;2.00;;;13.70;75.40;;;;;;4880842;29;20071;-74
2021/05/26 00:58:00;;;;;;;7.20;1.70;;;13.70;76.50;;;;;;4885755;29;20060;-74
2021/05/26 01:00:28;;;;;;;7.45;2.40;;;13.70;77.20;;;;;;4886228;29;20080;-74
2021/05/26 01:02:55;;;;;;;8.50;1.98;;;13.70;76.60;;;;;;4889655;29;20025;-73
2021/05/26 01:05:23;;;;;;;5.70;1.80;;;13.70;77.00;;;;;;4869645;29;20600;-74
2021/05/26 01:07:51;;;;;;;6.68;1.80;;;13.60;77.00;;;;;;4871248;29;20085;-74
2021/05/26 01:10:19;;;;;;;6.18;1.77;;;13.60;76.90;;;;;;4884893;29;20476;-73
2021/05/26 01:12:45;;;;;;;6.15;2.45;;;13.60;76.50;;;;;;4875158;29;20477;-73
2021/05/26 01:15:13;;;;;;;6.43;1.77;;;13.60;76.30;;;;;;4862406;29;20056;-73
2021/05/26 01:17:39;;;;;;;7.97;2.13;;;13.60;76.20;;;;;;4877664;29;20021;-74
2021/05/26 01:20:08;;;;;;;8.48;2.22;;;13.60;76.90;;;;;;4887926;29;20373;-73
2021/05/26 01:22:35;;;;;;;9.10;2.10;;;13.60;77.00;;;;;;4902282;29;20040;-74
2021/05/26 01:25:01;;;;;;;6.03;1.65;;;13.60;76.90;;;;;;4889712;29;20555;-73
2021/05/26 01:27:27;;;;;;;6.28;1.90;;;13.60;77.40;;;;;;4885242;29;20037;-73
2021/05/26 01:29:56;;;;;;;5.43;1.60;;;13.60;77.90;;;;;;4877685;29;20036;-73
2021/05/26 01:32:22;;;;;;;6.07;1.95;;;13.60;77.90;;;;;;4872089;29;20028;-74
2021/05/26 01:34:48;;;;;;;4.20;2.08;;;13.60;77.80;;;;;;4876582;29;20037;-73
2021/05/26 01:37:14;;;;;;;8.77;2.13;;;13.50;77.40;;;;;;4884111;29;20032;-73
2021/05/26 01:39:39;;;;;;;6.25;1.63;;;13.50;77.90;;;;;;4873823;29;20033;-74
2021/05/26 01:42:05;;;;;;;3.90;1.70;;;13.50;77.90;;;;;;4890160;29;20020;-73
2021/05/26 01:44:34;;;;;;;5.03;1.90;;;13.50;77.80;;;;;;4884594;29;20037;-73
2021/05/26 01:47:00;;;;;;;4.57;1.75;;;13.50;79.20;;;;;;4872716;29;20036;-73
2021/05/26 01:49:26;;;;;;;6.03;1.80;;;13.50;78.70;;;;;;4884524;29;20037;-74
2021/05/26 01:51:52;;;;;;;5.70;1.90;;;13.50;79.00;;;;;;4870566;29;20030;-73
2021/05/26 01:54:18;;;;;;;5.15;1.80;;;13.40;78.80;;;;;;4870610;29;20147;-73
2021/05/26 01:56:45;;;;;;;5.05;1.85;;;13.40;78.30;;;;;;4893091;29;20033;-73
2021/05/26 01:59:11;;;;;;;5.07;2.60;;;13.50;78.50;;;;;;4874403;29;20032;-74
2021/05/26 02:01:36;;;;;;;5.20;1.70;;;13.40;78.50;;;;;;4889446;29;20053;-73
2021/05/26 02:04:02;;;;;;;7.28;2.00;;;13.40;78.90;;;;;;4884583;29;20059;-74
2021/05/26 02:06:28;;;;;;;4.13;1.77;;;13.40;79.10;;;;;;4871230;29;20445;-74
2021/05/26 02:08:57;;;;;;;4.47;1.85;;;13.40;79.90;;;;;;4876974;29;20031;-74
2021/05/26 02:14:09;;;;;;;4.15;1.45;;;13.40;79.40;;;;;;4869879;29;20088;-74
2021/05/26 02:16:36;;;;;;;6.25;1.42;;;13.40;79.60;;;;;;4884309;29;20051;-74
2021/05/26 02:19:03;;;;;;;6.10;1.80;;;13.40;79.20;;;;;;4894086;29;20037;-74
2021/05/26 02:21:29;;;;;;;4.25;1.48;;;13.40;79.20;;;;;;4883913;29;20037;-74
2021/05/26 02:23:57;;;;;;;3.65;1.40;;;13.40;79.30;;;;;;4857579;29;20128;-74
2021/05/26 02:26:23;;;;;;;3.08;1.30;;;13.40;79.20;;;;;;4891294;29;20028;-74
2021/05/26 02:28:48;;;;;;;4.38;1.40;;;13.40;79.00;;;;;;4870871;29;20025;-74
2021/05/26 02:31:14;;;;;;;4.50;1.40;;;13.40;80.30;;;;;;4883721;29;20378;-74
2021/05/26 02:33:40;;;;;;;5.28;1.50;;;13.40;79.30;;;;;;4865446;29;20466;-74
2021/05/26 02:36:07;;;;;;;5.88;1.30;;;13.40;79.50;;;;;;4888618;29;20033;-74
2021/05/26 02:38:33;;;;;;;4.25;1.27;;;13.40;79.30;;;;;;4865909;29;20120;-74
2021/05/26 02:40:59;;;;;;;3.40;1.27;;;13.40;79.70;;;;;;4877673;29;20077;-74
2021/05/26 02:43:25;;;;;;;3.20;1.23;;;13.40;79.50;;;;;;4873897;29;20029;-74
2021/05/26 02:45:51;;;;;;;2.75;1.10;;;13.40;79.50;;;;;;4886953;29;20053;-74
2021/05/26 02:48:18;;;;;;;2.70;1.10;;;13.40;80.20;;;;;;4884558;29;20119;-73
2021/05/26 02:50:44;;;;;;;3.55;1.13;;;13.40;79.00;;;;;;4882985;29;20017;-74
2021/05/26 02:53:09;;;;;;;1.95;0.88;;;13.40;79.00;;;;;;4859406;29;20576;-74
2021/05/26 02:55:35;;;;;;;1.35;0.70;;;13.40;78.20;;;;;;4879057;29;20405;-73
2021/05/26 02:58:01;;;;;;;1.65;0.68;;;13.40;77.40;;;;;;4887868;29;20112;-73
2021/05/26 03:00:27;;;;;;;1.15;0.50;;;13.40;76.80;;;;;;4867688;29;20048;-74
2021/05/26 03:02:53;;;;;;;1.38;0.65;;;13.40;76.40;;;;;;4872863;29;20050;-74
2021/05/26 03:05:20;;;;;;;1.70;0.60;;;13.30;76.70;;;;;;4895587;29;20049;-74
2021/05/26 03:07:46;;;;;;;0.75;0.60;;;13.30;76.10;;;;;;4893864;29;20025;-73
2021/05/26 03:10:15;;;;;;;1.60;0.70;;;13.30;75.80;;;;;;4891380;29;20021;-73
2021/05/26 03:12:41;;;;;;;1.52;0.60;;;13.30;76.30;;;;;;4871316;29;20069;-73
2021/05/26 03:15:11;;;;;;;2.25;0.70;;;13.30;75.90;;;;;;4891123;29;20115;-73
2021/05/26 03:17:38;;;;;;;2.00;0.77;;;13.20;77.80;;;;;;4887445;29;20037;-74
2021/05/26 03:20:05;;;;;;;2.40;0.85;;;13.10;77.40;;;;;;4889187;29;20032;-74
2021/05/26 03:22:34;;;;;;;2.33;0.70;;;13.10;76.80;;;;;;4883237;29;20039;-74
2021/05/26 03:25:00;;;;;;;1.23;0.70;;;13.00;76.80;;;;;;4887139;29;20013;-73
2021/05/26 03:27:33;;;;;;;4.78;0.80;;;13.00;76.90;;;;;;4875246;29;20025;-74
2021/05/26 03:30:00;;;;;;;3.03;0.73;;;13.00;76.80;;;;;;4877557;29;20518;-74
2021/05/26 03:32:26;;;;;;;2.88;0.77;;;12.90;77.50;;;;;;4874042;29;20033;-74
2021/05/26 03:34:52;;;;;;;2.03;1.10;;;12.90;76.50;;;;;;4871501;29;20025;-74
2021/05/26 03:37:18;;;;;;;3.25;1.33;;;12.90;76.70;;;;;;4879226;29;20069;-73
2021/05/26 03:39:44;;;;;;;1.70;0.77;;;12.90;77.10;;;;;;4886879;29;20029;-73
2021/05/26 03:42:09;;;;;;;2.40;0.80;;;12.80;77.60;;;;;;4873672;29;20045;-73
2021/05/26 03:44:35;;;;;;;4.15;1.25;;;12.80;78.40;;;;;;4887174;29;20025;-73
2021/05/26 03:47:01;;;;;;;2.90;0.85;;;12.80;77.10;;;;;;4874386;29;20065;-73
2021/05/26 03:49:27;;;;;;;2.95;0.80;;;12.70;77.00;;;;;;4880029;29;20029;-73
2021/05/26 03:51:52;;;;;;;2.55;0.70;;;12.70;77.00;;;;;;4883062;29;20029;-73
2021/05/26 03:54:18;;;;;;;2.08;0.80;;;12.70;77.10;;;;;;4879350;29;20093;-74
2021/05/26 03:56:44;;;;;;;2.38;1.15;;;12.70;76.80;;;;;;4891501;29;20028;-73
2021/05/26 03:59:10;;;;;;;1.92;0.80;;;12.70;76.90;;;;;;4888708;29;20061;-73
2021/05/26 04:01:36;;;;;;;1.92;0.80;;;12.70;77.40;;;;;;4883395;29;20063;-74
2021/05/26 04:04:02;;;;;;;2.97;0.70;;;12.70;77.80;;;;;;4875455;29;20066;-74
2021/05/26 04:06:28;;;;;;;3.58;1.00;;;12.70;77.80;;;;;;4886574;29;20661;-73
2021/05/26 04:08:54;;;;;;;2.05;1.00;;;12.70;77.20;;;;;;4874912;29;20093;-73
2021/05/26 04:11:20;;;;;;;5.75;0.90;;;12.60;77.40;;;;;;4879487;29;20036;-74
2021/05/26 04:13:46;;;;;;;3.53;0.85;;;12.60;77.00;;;;;;4868035;29;20033;-73
2021/05/26 04:16:11;;;;;;;2.83;1.08;;;12.60;77.50;;;;;;4886471;29;20033;-74
2021/05/26 04:18:37;;;;;;;3.08;0.80;;;12.60;77.60;;;;;;4893424;29;20096;-73
2021/05/26 04:21:04;;;;;;;3.03;0.90;;;12.60;77.00;;;;;;4894573;29;20029;-74
2021/05/26 04:23:29;;;;;;;2.88;1.00;;;12.60;77.00;;;;;;4884918;29;20067;-73
2021/05/26 04:25:55;;;;;;;5.22;1.23;;;12.60;77.70;;;;;;4891660;29;20407;-73
2021/05/26 04:28:22;;;;;;;3.50;0.90;;;12.60;77.40;;;;;;4900404;29;20036;-73
2021/05/26 04:30:48;;;;;;;2.83;1.08;;;12.60;77.30;;;;;;4887013;29;20025;-73
2021/05/26 04:33:16;;;;;;;2.83;1.10;;;12.60;77.70;;;;;;4874935;29;20029;-73
2021/05/26 04:35:43;;;;;;;3.72;1.13;;;12.60;78.00;;;;;;4891730;29;20111;-74
2021/05/26 04:38:09;;;;;;;2.80;1.00;;;12.60;77.80;;;;;;4892533;29;20409;-74
2021/05/26 04:40:35;;;;;;;2.63;1.13;;;12.60;78.40;;;;;;4885866;29;20029;-74
2021/05/26 04:43:00;;;;;;;3.80;1.00;;;12.50;78.40;;;;;;4879176;29;20036;-74
2021/05/26 04:45:26;;;;;;;3.78;1.00;;;12.50;78.00;;;;;;4885673;29;20032;-74
2021/05/26 04:47:52;;;;;;;3.75;1.10;;;12.50;78.00;;;;;;4885866;29;20026;-74
2021/05/26 04:50:18;;;;;;;3.28;1.20;;;12.50;78.00;;;;;;4885584;29;20044;-74
2021/05/26 04:52:44;;;;;;;3.15;1.27;;;12.50;78.30;;;;;;4885869;29;20036;-74
2021/05/26 04:55:10;;;;;;;4.32;1.30;;;12.50;78.50;;;;;;4885692;29;20041;-70
2021/05/26 04:57:36;;;;;;;3.53;1.40;;;12.50;78.00;;;;;;4890041;29;20069;-72
2021/05/26 05:00:04;;;;;;;2.92;1.13;;;12.50;77.80;;;;;;4866946;29;20029;-75
2021/05/26 05:02:30;;;;;;;2.05;0.98;;;12.50;77.30;;;;;;4891082;29;20535;-76
2021/05/26 05:04:56;;;;;;;5.13;1.42;;;12.50;77.40;;;;;;4879270;29;20164;-74
2021/05/26 05:07:22;;;;;;;3.00;1.30;;;12.50;77.90;;;;;;4884093;29;20035;-77
2021/05/26 05:09:48;;;;;;;2.53;1.40;;;12.50;77.60;;;;;;4881482;29;20037;-71
2021/05/26 05:12:13;;;;;;;3.28;1.23;;;12.50;78.00;;;;;;4877257;29;20024;-72
2021/05/26 05:14:39;;;;;;;3.67;1.25;;;12.50;77.50;;;;;;4873750;29;20025;-72
2021/05/26 05:17:05;;;;;;;3.00;1.02;;;12.50;78.30;;;;;;4885358;29;20029;-70
2021/05/26 05:19:31;;;;;;;3.28;1.25;;;12.50;77.70;;;;;;4895595;29;20044;-70
2021/05/26 05:21:56;;;;;;;2.95;1.20;;;12.50;78.30;;;;;;4885476;29;20061;-72
2021/05/26 05:24:22;;;;;;;2.78;1.45;;;12.60;78.40;;;;;;4889908;29;20052;-72
2021/05/26 05:26:48;;;;;;;3.67;1.30;;;12.60;78.00;;;;;;4892809;29;20032;-70
2021/05/26 05:29:14;;;;;;;3.75;1.45;;;12.60;77.80;;;;;;4886276;29;20119;-68
2021/05/26 05:31:39;;;;;;;5.22;1.40;;;12.60;78.30;;;;;;4891869;29;20040;-72
2021/05/26 05:34:05;;;;;;;3.15;1.13;;;12.60;77.70;;;;;;4868372;29;20052;-73
2021/05/26 05:36:31;;;;;;;1.83;1.08;;;12.60;77.50;;;;;;4866619;29;20025;-73
2021/05/26 05:38:57;;;;;;;3.95;1.48;;;12.60;77.90;;;;;;4889326;29;20040;-72
2021/05/26 05:41:23;;;;;;;4.10;1.48;;;12.60;77.30;;;;;;4875311;29;20393;-72
2021/05/26 05:43:49;;;;;;;4.38;1.52;;;12.60;77.50;;;;;;4883890;29;20045;-72
2021/05/26 05:46:15;;;;;;;4.75;1.20;;;12.70;78.70;;;;;;4884368;29;20025;-72
2021/05/26 05:48:40;;;;;;;2.45;1.20;;;12.70;78.20;;;;;;4876135;29;20071;-72
2021/05/26 05:51:06;;;;;;;4.53;1.27;;;12.60;78.20;;;;;;4866189;29;20036;-73
2021/05/26 05:53:32;;;;;;;5.03;1.30;;;12.70;77.70;;;;;;4866165;29;20133;-72
2021/05/26 05:56:01;;;;;;;3.08;1.15;;;12.70;78.70;;;;;;4882952;29;20029;-72
2021/05/26 05:58:27;;;;;;;3.05;1.23;;;12.70;78.40;;;;;;4884701;29;20108;-72
2021/05/26 06:00:53;;;;;;;3.20;1.23;;;12.70;79.00;;;;;;4873352;29;20021;-71
2021/05/26 06:03:19;;;;;;;3.08;1.27;;;12.70;78.90;;;;;;4874942;29;20116;-71
2021/05/26 06:05:45;;;;;;;3.47;1.20;;;12.70;78.10;;;;;;4865848;29;20086;-71
2021/05/26 06:08:11;;;;;;;4.18;1.58;;;12.70;78.40;;;;;;4865999;29;20022;-72
2021/05/26 06:10:36;;;;;;;3.22;1.20;;;12.80;79.00;;;;;;4884211;29;20026;-72
2021/05/26 06:13:07;;;;;;;4.20;1.17;;;12.80;78.20;;;;;;4873704;29;20442;-72
2021/05/26 06:15:34;;;;;;;2.97;1.20;;;12.80;78.60;;;;;;4879495;29;20032;-72
2021/05/26 06:17:59;;;;;;;3.15;1.13;;;12.80;78.50;;;;;;4873976;29;20108;-71
2021/05/26 06:20:25;;;;;;;2.08;1.02;;;12.80;78.20;;;;;;4879664;29;20065;-72
2021/05/26 06:22:51;;;;;;;2.30;1.10;;;12.80;77.90;;;;;;4890263;29;20439;-71
2021/05/26 06:25:18;;;;;;;3.58;1.13;;;12.80;78.40;;;;;;4893284;29;20078;-72
2021/05/26 06:27:43;;;;;;;2.85;1.27;;;12.80;78.30;;;;;;4888901;29;20137;-72
2021/05/26 06:30:10;;;;;;;2.53;1.27;;;12.80;78.40;;;;;;4896019;29;20061;-72
2021/05/26 06:32:36;;;;;;;3.13;1.23;;;12.80;77.80;;;;;;4875087;29;20047;-72
2021/05/26 06:35:03;;;;;;;3.65;1.15;;;12.90;78.50;;;;;;4880946;29;20441;-72
2021/05/26 06:37:28;;;;;;;3.50;1.20;;;12.80;78.00;;;;;;4887824;29;20037;-72
2021/05/26 06:39:54;;;;;;;1.88;1.00;;;12.90;77.80;;;;;;4879336;29;20048;-72
2021/05/26 06:42:20;;;;;;;3.85;1.20;;;12.90;78.50;;;;;;4886377;29;20032;-72
2021/05/26 06:44:46;;;;;;;3.42;1.10;;;12.90;78.30;;;;;;4871244;29;20042;-72
2021/05/26 06:47:12;;;;;;;5.28;2.05;;;12.90;77.80;;;;;;4885097;29;20025;-72
2021/05/26 06:49:37;;;;;;;2.53;1.20;;;12.90;77.90;;;;;;4882062;29;20048;-73
2021/05/26 06:52:03;;;;;;;3.42;1.30;;;12.90;77.80;;;;;;4885970;29;20017;-73
2021/05/26 06:54:29;;;;;;;3.85;1.50;;;12.90;78.00;;;;;;4883892;29;20060;-73
2021/05/26 06:56:55;;;;;;;4.03;1.30;;;13.00;77.80;;;;;;4891538;29;20025;-73
2021/05/26 06:59:21;;;;;;;2.78;1.23;;;13.00;78.20;;;;;;4886008;29;20104;-73
2021/05/26 07:01:47;;;;;;;3.88;1.30;;;13.00;78.40;;;;;;4893186;29;20067;-72
2021/05/26 07:04:13;;;;;;;2.00;1.00;;;13.00;77.90;;;;;;4887335;29;20112;-72
2021/05/26 07:06:39;;;;;;;3.05;1.00;;;13.00;78.10;;;;;;4887342;29;20048;-72
2021/05/26 07:09:05;;;;;;;2.28;1.10;;;13.00;77.90;;;;;;4872947;29;20041;-73
2021/05/26 07:11:31;;;;;;;3.80;1.25;;;13.10;78.10;;;;;;4882920;29;20029;-73
2021/05/26 07:13:56;;;;;;;3.83;1.40;;;13.10;78.40;;;;;;4871578;29;20506;-73
2021/05/26 07:16:22;;;;;;;2.38;1.52;;;13.20;78.50;;;;;;4877389;29;20382;-72
2021/05/26 07:18:48;;;;;;;3.60;1.25;;;13.20;78.90;;;;;;4873073;29;20041;-72
2021/05/26 07:21:17;;;;;;;2.90;1.20;;;13.20;78.20;;;;;;4885376;29;20506;-72
2021/05/26 07:23:44;;;;;;;2.63;1.20;;;13.20;78.30;;;;;;4876404;29;20033;-71
2021/05/26 07:26:10;;;;;;;4.55;1.40;;;13.30;79.80;;;;;;4883120;29;20021;-71
2021/05/26 07:28:37;;;;;;;2.85;1.10;;;13.30;79.00;;;;;;4882206;29;20021;-72
2021/05/26 07:31:03;;;;;;;3.90;1.38;;;13.30;79.30;;;;;;4868455;29;20388;-71
2021/05/26 07:33:30;;;;;;;4.90;1.23;;;13.30;78.80;;;;;;4877716;29;20408;-71
2021/05/26 07:35:55;;;;;;;3.63;1.35;;;13.30;78.90;;;;;;4864836;29;20493;-71
2021/05/26 07:38:21;;;;;;;4.07;1.40;;;13.30;78.30;;;;;;4864751;29;20026;-72
2021/05/26 07:40:47;;;;;;;2.42;0.90;;;13.30;78.60;;;;;;4864982;29;20061;-72
2021/05/26 07:43:13;;;;;;;2.90;1.25;;;13.30;78.50;;;;;;4871959;29;20119;-72
2021/05/26 07:45:39;;;;;;;4.40;1.40;;;13.30;78.60;;;;;;4882346;29;20029;-72
2021/05/26 07:48:05;;;;;;;3.45;1.10;;;13.40;79.50;;;;;;4864675;29;20086;-72
2021/05/26 07:50:35;;;;;;;3.25;1.10;;;13.40;78.90;;;;;;4864724;29;20104;-72
2021/05/26 07:53:04;;;;;;;2.55;1.10;;;13.40;78.80;;;;;;4864941;29;20108;-72
2021/05/26 07:55:31;;;;;;;8.23;4.68;;;13.50;78.80;;;;;;4864924;29;20056;-71
2021/05/26 07:57:57;;;;;;;8.82;6.05;;;13.50;78.60;;;;;;4873428;29;20500;-71
2021/05/26 08:00:23;;;;;;;9.13;5.03;;;13.60;79.00;;;;;;4882805;29;20037;-71
2021/05/26 08:02:49;;;;;;;5.88;2.33;;;13.60;79.00;;;;;;4874709;29;20026;-71
2021/05/26 08:05:16;;;;;;;5.18;2.53;;;13.60;78.50;;;;;;4879597;29;20055;-71
2021/05/26 08:07:42;;;;;;;3.65;1.88;;;13.60;78.50;;;;;;4883710;29;20026;-71
2021/05/26 08:10:08;;;;;;;4.20;1.67;;;13.70;78.60;;;;;;4871126;29;20025;-71
2021/05/26 08:12:34;;;;;;;4.50;1.42;;;13.70;78.50;;;;;;4864289;29;20447;-71
2021/05/26 08:15:00;;;;;;;3.50;1.50;;;13.70;78.70;;;;;;4864763;29;20037;-71
2021/05/26 08:17:25;;;;;;;1.52;0.98;;;13.70;78.50;;;;;;4864347;29;20093;-71
2021/05/26 08:19:51;;;;;;;2.58;1.13;;;13.80;78.80;;;;;;4864590;29;20030;-71
2021/05/26 08:22:17;;;;;;;2.60;1.30;;;13.70;78.30;;;;;;4864552;29;20489;-71
2021/05/26 08:24:43;;;;;;;2.83;1.23;;;13.80;78.30;;;;;;4864680;29;20033;-71
2021/05/26 08:27:09;;;;;;;3.17;1.50;;;13.80;78.30;;;;;;4864511;29;20109;-71
2021/05/26 08:29:34;;;;;;;1.83;0.82;;;13.80;78.00;;;;;;4864727;29;20096;-71
2021/05/26 08:32:01;;;;;;;2.03;0.95;;;13.90;78.50;;;;;;4864288;29;20388;-71
2021/05/26 08:34:27;;;;;;;2.38;1.00;;;13.90;78.30;;;;;;4864445;29;20029;-71
2021/05/26 08:36:53;;;;;;;4.20;1.15;;;13.80;78.00;;;;;;4847722;29;20039;-71
2021/05/26 08:39:20;;;;;;;1.80;0.90;;;13.80;77.70;;;;;;4864531;29;20049;-71
2021/05/26 08:41:51;;;;;;;2.38;1.15;;;13.80;77.80;;;;;;4864317;29;20508;-71
2021/05/26 08:44:17;;;;;;;2.80;1.77;;;13.90;77.80;;;;;;4879217;29;20085;-71
2021/05/26 08:46:42;;;;;;;2.92;0.93;;;13.90;77.80;;;;;;4874059;29;20033;-71
2021/05/26 08:49:09;;;;;;;3.50;0.88;;;13.90;77.50;;;;;;4866731;29;20028;-71
2021/05/26 08:51:35;;;;;;;1.75;0.80;;;13.90;77.50;;;;;;4867714;29;20396;-71
2021/05/26 08:54:02;;;;;;;2.67;0.70;;;13.90;77.10;;;;;;4867630;29;20033;-71
2021/05/26 08:56:28;;;;;;;2.95;0.77;;;14.00;77.00;;;;;;4851064;29;20029;-71
2021/05/26 08:58:55;;;;;;;2.75;1.38;;;14.00;76.70;;;;;;4867447;29;20109;-71
2021/05/26 09:01:21;;;;;;;2.08;0.88;;;14.00;76.70;;;;;;4867549;29;20025;-71
2021/05/26 09:03:50;;;;;;;1.85;0.70;;;14.00;76.70;;;;;;4867093;29;20062;-71
2021/05/26 09:06:17;;;;;;;1.63;0.80;;;14.00;76.90;;;;;;4867264;29;20050;-71
2021/05/26 09:08:50;;;;;;;1.48;0.75;;;14.00;76.80;;;;;;4871156;29;20029;-72
2021/05/26 09:11:29;;;;;;;1.55;0.98;;;14.00;77.00;;;;;;4879111;29;20362;-71
2021/05/26 09:13:55;;;;;;;1.75;0.98;;;14.00;76.90;;;;;;4874664;29;20068;-71
2021/05/26 09:16:24;;;;;;;3.75;0.80;;;14.00;77.00;;;;;;4872011;29;20037;-71
2021/05/26 09:19:01;;;;;;;2.65;0.93;;;14.00;77.20;;;;;;4867125;29;20185;-71
2021/05/26 09:21:39;;;;;;;1.92;0.70;;;14.10;77.20;;;;;;4867061;29;20030;-71
2021/05/26 09:24:26;;;;;;;3.13;1.20;;;14.10;77.30;;;;;;4867242;29;20045;-71
2021/05/26 09:26:56;;;;;;;3.22;1.30;;;14.20;77.10;;;;;;4871356;29;20025;-71
2021/05/26 09:29:25;;;;;;;1.73;0.80;;;14.30;77.40;;;;;;4885474;29;20025;-71
2021/05/26 09:32:13;;;;;;;1.58;0.80;;;14.30;77.40;;;;;;4878781;29;20053;-71
2021/05/26 09:34:44;;;;;;;3.05;0.95;;;14.40;77.20;;;;;;4866650;29;20030;-71
2021/05/26 09:37:21;;;;;;;2.42;0.80;;;14.40;76.90;;;;;;4867187;29;20021;-71
2021/05/26 09:39:52;;;;;;;1.67;0.80;;;14.40;76.70;;;;;;4866770;29;20025;-71
2021/05/26 09:42:22;;;;;;;3.15;1.08;;;14.40;76.70;;;;;;4866900;29;20021;-72
2021/05/26 09:45:15;;;;;;;3.60;1.80;;;14.30;76.50;;;;;;4883776;29;20085;-70
2021/05/26 09:47:47;;;;;;;3.28;1.70;;;14.30;76.50;;;;;;4884833;29;20026;-70
2021/05/26 09:50:16;;;;;;;21.48;10.93;;;14.30;76.30;;;;;;4850978;29;20037;-70
2021/05/26 09:53:03;;;;;;;21.77;9.93;;;14.30;76.30;;;;;;4865341;29;20036;-71
2021/05/26 09:55:40;;;;;;;25.75;11.85;;;14.30;76.80;;;;;;4865157;29;20051;-71
2021/05/26 09:58:11;;;;;;;13.48;6.03;;;14.30;76.70;;;;;;4881724;29;20032;-70
2021/05/26 10:00:38;;;;;;;21.67;10.10;;;14.40;76.90;;;;;;4880400;29;20042;-71
2021/05/26 10:03:05;;;;;;;34.88;16.42;;;14.40;77.30;;;;;;4877401;29;20432;-71
2021/05/26 10:05:31;;;;;;;12.48;6.85;;;14.50;77.00;;;;;;4879627;29;20058;-71
2021/05/26 10:07:58;;;;;;;5.78;2.30;;;14.60;77.00;;;;;;4866373;29;20493;-71
2021/05/26 10:10:28;;;;;;;3.47;1.38;;;14.70;77.00;;;;;;4878321;29;20374;-71
2021/05/26 10:12:58;;;;;;;2.35;1.00;;;14.70;77.00;;;;;;4866223;29;20022;-71
2021/05/26 10:15:30;;;;;;;1.33;0.68;;;14.70;76.70;;;;;;4876083;29;20025;-72
2021/05/26 10:17:58;;;;;;;3.17;0.93;;;14.70;76.80;;;;;;4878452;29;20393;-72
2021/05/26 10:20:29;;;;;;;2.17;0.90;;;14.70;76.50;;;;;;4881360;29;20029;-72
2021/05/26 10:22:57;;;;;;;3.97;1.87;;;14.70;76.70;;;;;;4865690;29;20468;-71
2021/05/26 10:25:24;;;;;;;3.55;1.50;;;14.70;76.50;;;;;;4849091;29;20702;-72
2021/05/26 10:27:54;;;;;;;3.60;1.55;;;14.70;76.30;;;;;;4866076;29;20034;-72
2021/05/26 10:30:26;;;;;;;2.45;1.10;;;14.70;76.50;;;;;;4848919;29;20030;-71
2021/05/26 10:33:00;;;;;;;2.97;1.08;;;14.80;76.50;;;;;;4865812;29;20026;-72
2021/05/26 10:35:31;;;;;;;3.55;1.40;;;14.80;77.00;;;;;;4865481;29;20063;-71
2021/05/26 10:38:03;;;;;;;2.65;1.10;;;14.90;76.60;;;;;;4865611;29;20037;-71
2021/05/26 10:40:32;;;;;;;1.25;0.70;;;14.90;76.30;;;;;;4865653;29;20029;-72
2021/05/26 10:43:13;;;;;;;0.80;0.50;;;14.90;76.80;;;;;;4870255;29;20075;-71
2021/05/26 10:45:39;;;;;;;1.20;0.70;;;14.90;76.20;;;;;;4883582;29;20025;-71
2021/05/26 10:48:06;;;;;;;1.42;0.63;;;14.90;76.10;;;;;;4849874;29;20026;-71
2021/05/26 10:50:54;;;;;;;0.90;0.50;;;15.00;76.10;;;;;;4865253;29;20090;-71
2021/05/26 10:53:20;;;;;;;1.50;0.60;;;15.00;76.10;;;;;;4871815;29;20025;-71
2021/05/26 10:55:52;;;;;;;0.75;0.55;;;15.10;76.00;;;;;;4854390;29;20068;-72
2021/05/26 10:58:24;;;;;;;;;;;15.10;76.00;;;;;;4865753;29;20105;-71
2021/05/26 11:00:57;;;;;;;1.20;0.70;;;15.20;75.90;;;;;;4865097;29;19915;-71
2021/05/26 11:03:33;;;;;;;1.67;0.68;;;15.20;75.80;;;;;;4863717;29;20029;-71
2021/05/26 11:06:14;;;;;;;0.85;0.70;;;15.20;75.60;;;;;;4864936;29;20049;-72
2021/05/26 11:08:51;;;;;;;1.77;0.73;;;15.20;75.50;;;;;;4864894;29;20026;-71
2021/05/26 11:11:34;;;;;;;1.48;0.70;;;15.20;75.50;;;;;;4864687;29;20073;-71
2021/05/26 11:14:06;;;;;;;2.20;0.90;;;15.20;75.40;;;;;;4865005;29;20044;-71
2021/05/26 11:16:44;;;;;;;2.03;0.80;;;15.20;75.50;;;;;;4864761;29;20042;-71
2021/05/26 11:19:30;;;;;;;1.05;0.60;;;15.20;75.40;;;;;;4864558;29;20385;-71
2021/05/26 11:22:06;;;;;;;2.42;0.70;;;15.30;75.60;;;;;;4864894;29;20040;-72
2021/05/26 11:24:33;;;;;;;1.80;0.70;;;15.30;75.60;;;;;;4864871;29;20508;-71
2021/05/26 11:27:00;;;;;;;2.55;1.02;;;15.40;75.60;;;;;;4864712;29;20025;-72
2021/05/26 11:29:27;;;;;;;3.85;1.00;;;15.40;75.70;;;;;;4864832;29;20014;-72
2021/05/26 11:32:16;;;;;;;2.58;1.20;;;15.50;75.80;;;;;;4864510;29;20078;-71
2021/05/26 11:34:44;;;;;;;1.85;0.90;;;15.50;75.70;;;;;;4864666;29;20025;-72
2021/05/26 11:37:12;;;;;;;2.00;0.98;;;15.50;75.50;;;;;;4848002;29;20724;-71
2021/05/26 11:39:38;;;;;;;1.73;1.08;;;15.50;75.40;;;;;;4864549;29;20022;-72
2021/05/26 11:42:08;;;;;;;1.58;0.82;;;15.60;75.40;;;;;;4864818;29;20136;-71
2021/05/26 11:44:45;;;;;;;2.03;0.90;;;15.50;75.10;;;;;;4881640;29;20029;-72
2021/05/26 11:47:11;;;;;;;1.48;0.82;;;15.50;75.30;;;;;;4872434;29;20021;-72
2021/05/26 11:49:42;;;;;;;2.25;0.93;;;15.50;75.30;;;;;;4864410;29;20512;-71
2021/05/26 11:52:12;;;;;;;1.45;0.90;;;15.50;75.20;;;;;;4864635;29;20026;-72
2021/05/26 11:54:59;;;;;;;1.23;0.70;;;15.50;75.10;;;;;;4864516;29;20044;-71
2021/05/26 11:57:41;;;;;;;1.85;1.08;;;15.50;75.20;;;;;;4864542;29;20036;-71
2021/05/26 12:00:10;;;;;;;4.35;1.70;;;15.50;75.30;;;;;;4864361;29;20040;-71
2021/05/26 12:02:54;;;;;;;2.80;1.67;;;15.50;75.30;;;;;;4864190;29;20143;-71
2021/05/26 12:05:52;;;;;;;2.38;1.40;;;15.60;75.30;;;;;;4862920;29;20128;-71
2021/05/26 12:08:26;;;;;;;3.25;1.42;;;15.60;75.50;;;;;;4864395;29;20113;-71
2021/05/26 12:11:02;;;;;;;3.63;1.60;;;15.60;75.50;;;;;;4876979;29;20389;-71
2021/05/26 12:13:39;;;;;;;2.60;1.23;;;15.70;75.50;;;;;;4864900;29;20108;-72
2021/05/26 12:16:09;;;;;;;2.75;1.30;;;15.80;75.70;;;;;;4871951;29;20029;-72
2021/05/26 12:18:36;;;;;;;2.75;1.17;;;15.80;75.70;;;;;;4868566;29;20501;-72
2021/05/26 12:21:03;;;;;;;2.10;1.10;;;15.90;75.50;;;;;;4864646;29;20025;-71
2021/05/26 12:23:33;;;;;;;3.53;1.05;;;15.90;75.00;;;;;;4866326;29;20081;-71
2021/05/26 12:25:59;;;;;;;4.18;1.10;;;16.00;75.20;;;;;;4868282;29;20041;-72
2021/05/26 12:28:29;;;;;;;2.58;1.30;;;16.00;75.20;;;;;;4868038;29;20471;-72
2021/05/26 12:30:55;;;;;;;3.85;1.33;;;16.10;75.40;;;;;;4868010;29;20022;-72
2021/05/26 12:33:23;;;;;;;3.90;1.38;;;16.10;75.30;;;;;;4867709;29;20057;-71
2021/05/26 12:36:02;;;;;;;2.58;1.00;;;16.10;74.90;;;;;;4868036;29;20030;-72
2021/05/26 12:38:32;;;;;;;3.05;1.77;;;16.20;75.20;;;;;;4867752;29;20112;-71
2021/05/26 12:40:58;;;;;;;3.58;1.67;;;16.20;75.10;;;;;;4867883;29;20104;-71
2021/05/26 12:43:25;;;;;;;3.58;1.17;;;16.20;75.10;;;;;;4876171;29;20060;-72
2021/05/26 12:45:51;;;;;;;3.65;1.50;;;16.20;74.80;;;;;;4884134;29;20036;-71
2021/05/26 12:48:17;;;;;;;2.88;1.38;;;16.30;74.80;;;;;;4867554;29;20026;-71
2021/05/26 12:50:45;;;;;;;3.92;1.52;;;16.30;74.70;;;;;;4867632;29;20029;-71
2021/05/26 12:53:17;;;;;;;4.25;1.30;;;16.30;74.80;;;;;;4867782;29;20029;-71